Terminal Aerodrome Forecast
Issued by NWS Louisville, KY

Home | Current Version | Previous Version | Text Only | Print | Product List | Glossary On
Versions: 1 2 3 4 5 6 7 8 9 10 11 12 13 14 15 16 17
000
FTUS43 KLMK 010537
TAFLEX
TAF
KLEX 010537Z 0106/0206 16008KT P6SM -SHRA VCTS BKN040CB
     FM010700 18007KT P6SM BKN100
     FM010900 19005KT 5SM BR FEW015 BKN100
     FM011500 24008KT P6SM SCT025 BKN035 PROB30 0120/0124 5SM -TSRA
      BKN030CB
     FM020000 21006KT P6SM BKN060=

USA.gov is the U.S. government's official web portal to all federal, state and local government web resources and services.